Time;durP1;ratioP1;P1;durP2;ratioP2;P2;SDS_P1;SDS_P2;PMS_P1;PMS_P2;Temp;Humidity;BMP_temperature;BMP_pressure;BME280_temperature;BME280_humidity;BME280_pressure;Samples;Min_cycle;Max_cycle;Signal;HPM_P1;HPM_P2
2024/02/27 00:00:07;;;;;;;5.55;1.73;;;;;;;;;;5003584;28;20029;-87
2024/02/27 00:02:53;;;;;;;1.85;1.30;;;;;;;;;;5000889;28;20038;-84
2024/02/27 00:05:38;;;;;;;1.70;1.17;;;;;;;;;;5002312;28;20067;-84
2024/02/27 00:08:23;;;;;;;3.35;1.50;;;;;;;;;;5000793;28;20049;-85
2024/02/27 00:11:09;;;;;;;5.28;1.73;;;;;;;;;;4999139;28;20558;-85
2024/02/27 00:13:54;;;;;;;4.55;1.70;;;;;;;;;;5015440;28;20447;-85
2024/02/27 00:16:39;;;;;;;2.00;1.33;;;;;;;;;;5000098;28;20030;-84
2024/02/27 00:19:25;;;;;;;1.77;1.52;;;;;;;;;;4997850;28;20033;-84
2024/02/27 00:22:10;;;;;;;1.85;1.30;;;;;;;;;;5005139;28;20554;-84
2024/02/27 00:24:55;;;;;;;2.83;1.38;;;;;;;;;;5005957;28;20496;-84
2024/02/27 00:27:40;;;;;;;2.25;1.42;;;;;;;;;;4999327;28;20531;-84
2024/02/27 00:30:26;;;;;;;2.47;1.58;;;;;;;;;;4983851;28;20380;-84
2024/02/27 00:33:11;;;;;;;2.35;1.45;;;;;;;;;;4994077;28;20388;-84
2024/02/27 00:35:56;;;;;;;1.48;1.30;;;;;;;;;;5000097;28;20254;-84
2024/02/27 00:38:42;;;;;;;2.20;1.23;;;;;;;;;;5002027;28;20461;-85
2024/02/27 00:41:27;;;;;;;3.45;1.48;;;;;;;;;;5004443;28;20168;-85
2024/02/27 00:44:12;;;;;;;4.57;1.45;;;;;;;;;;4998382;28;20100;-85
2024/02/27 00:46:57;;;;;;;1.73;1.30;;;;;;;;;;5002946;28;20067;-84
2024/02/27 00:49:43;;;;;;;2.42;1.33;;;;;;;;;;4997602;28;20022;-85
2024/02/27 00:52:28;;;;;;;1.10;1.00;;;;;;;;;;4999368;28;20249;-85
2024/02/27 00:55:14;;;;;;;1.35;1.00;;;;;;;;;;4994609;28;20032;-84
2024/02/27 00:57:59;;;;;;;1.75;1.20;;;;;;;;;;5005889;28;20030;-84
2024/02/27 01:00:45;;;;;;;1.75;1.30;;;;;;;;;;5000681;28;20025;-86
2024/02/27 01:03:30;;;;;;;4.60;1.20;;;;;;;;;;5006823;28;20064;-85
2024/02/27 01:06:15;;;;;;;2.05;1.55;;;;;;;;;;5005435;28;20091;-84
2024/02/27 01:09:01;;;;;;;2.40;1.50;;;;;;;;;;4996116;28;20511;-85
2024/02/27 01:11:46;;;;;;;2.45;1.20;;;;;;;;;;5003724;28;20064;-85
2024/02/27 01:14:31;;;;;;;2.42;1.10;;;;;;;;;;4999579;28;20053;-84
2024/02/27 01:17:16;;;;;;;2.75;1.30;;;;;;;;;;5008710;28;20029;-86
2024/02/27 01:20:02;;;;;;;1.45;1.20;;;;;;;;;;5002476;28;20037;-85
2024/02/27 01:22:47;;;;;;;2.35;1.20;;;;;;;;;;5000017;28;20191;-84
2024/02/27 01:25:32;;;;;;;3.42;1.17;;;;;;;;;;5008712;28;20068;-83
2024/02/27 01:28:18;;;;;;;2.92;1.10;;;;;;;;;;5003974;28;20025;-86
2024/02/27 01:31:05;;;;;;;2.75;1.55;;;;;;;;;;4997996;28;20097;-85
2024/02/27 01:33:50;;;;;;;1.98;1.20;;;;;;;;;;5006943;28;20310;-86
2024/02/27 01:36:35;;;;;;;2.97;1.23;;;;;;;;;;4998118;28;20033;-85
2024/02/27 01:39:21;;;;;;;1.52;1.20;;;;;;;;;;5012824;28;20036;-85
2024/02/27 01:42:06;;;;;;;1.65;1.08;;;;;;;;;;5006730;28;20026;-84
2024/02/27 01:44:52;;;;;;;1.85;1.00;;;;;;;;;;4999641;28;20036;-85
2024/02/27 01:47:37;;;;;;;2.05;1.20;;;;;;;;;;5009336;28;20022;-86
2024/02/27 01:50:23;;;;;;;2.97;1.75;;;;;;;;;;5010441;28;20036;-84
2024/02/27 01:53:08;;;;;;;2.28;1.35;;;;;;;;;;5016387;28;20085;-86
2024/02/27 01:55:53;;;;;;;3.17;1.50;;;;;;;;;;5008803;28;20148;-86
2024/02/27 01:58:39;;;;;;;2.40;1.60;;;;;;;;;;5011331;28;20036;-86
2024/02/27 02:01:24;;;;;;;1.75;1.60;;;;;;;;;;5007647;28;20025;-86
2024/02/27 02:04:11;;;;;;;3.00;1.60;;;;;;;;;;5005334;28;20029;-85
2024/02/27 02:06:57;;;;;;;2.95;1.75;;;;;;;;;;5005392;28;20025;-86
2024/02/27 02:09:42;;;;;;;4.13;1.95;;;;;;;;;;4996126;28;20078;-85
2024/02/27 02:12:30;;;;;;;2.03;1.30;;;;;;;;;;5002373;28;20042;-83
2024/02/27 02:15:16;;;;;;;4.90;1.60;;;;;;;;;;5000618;28;20034;-84
2024/02/27 02:18:01;;;;;;;5.18;1.83;;;;;;;;;;4999600;28;20091;-83
2024/02/27 02:20:46;;;;;;;3.25;2.10;;;;;;;;;;4997910;28;20088;-84
2024/02/27 02:23:32;;;;;;;3.03;1.60;;;;;;;;;;5003263;28;20024;-83
2024/02/27 02:26:17;;;;;;;2.47;1.50;;;;;;;;;;5002506;28;20190;-83
2024/02/27 02:29:06;;;;;;;2.35;1.50;;;;;;;;;;5003025;28;20507;-84
2024/02/27 02:31:52;;;;;;;2.33;1.63;;;;;;;;;;5006390;28;20467;-83
2024/02/27 02:34:37;;;;;;;4.05;2.70;;;;;;;;;;5012826;28;20504;-83
2024/02/27 02:37:23;;;;;;;5.30;2.72;;;;;;;;;;5000005;28;20132;-83
2024/02/27 02:40:09;;;;;;;4.07;2.90;;;;;;;;;;4993142;28;20132;-83
2024/02/27 02:42:54;;;;;;;7.15;3.25;;;;;;;;;;5010491;28;20040;-83
2024/02/27 02:45:41;;;;;;;7.80;3.78;;;;;;;;;;5012949;28;20443;-83
2024/02/27 02:48:26;;;;;;;7.22;3.75;;;;;;;;;;5012131;28;20029;-83
2024/02/27 02:51:11;;;;;;;5.82;3.53;;;;;;;;;;5020898;28;20014;-84
2024/02/27 02:53:57;;;;;;;5.88;3.50;;;;;;;;;;4991667;28;20113;-84
2024/02/27 02:56:42;;;;;;;7.07;3.75;;;;;;;;;;4996891;28;20140;-83
2024/02/27 02:59:27;;;;;;;7.28;3.97;;;;;;;;;;4991391;28;20057;-84
2024/02/27 03:02:12;;;;;;;7.18;4.50;;;;;;;;;;4994215;28;20488;-84
2024/02/27 03:04:58;;;;;;;6.25;3.70;;;;;;;;;;4995570;28;20469;-83
2024/02/27 03:07:43;;;;;;;7.15;3.80;;;;;;;;;;4998277;28;20025;-84
2024/02/27 03:10:29;;;;;;;7.97;5.07;;;;;;;;;;5012297;28;20029;-83
2024/02/27 03:13:14;;;;;;;8.30;4.63;;;;;;;;;;5008123;28;20123;-84
2024/02/27 03:16:00;;;;;;;7.82;4.97;;;;;;;;;;5017923;28;20105;-84
2024/02/27 03:18:45;;;;;;;9.48;3.92;;;;;;;;;;5003379;28;20025;-83
2024/02/27 03:21:32;;;;;;;9.00;4.45;;;;;;;;;;4997529;28;20029;-84
2024/02/27 03:24:17;;;;;;;7.00;4.28;;;;;;;;;;4995943;28;20025;-83
2024/02/27 03:27:03;;;;;;;6.97;4.30;;;;;;;;;;5007130;28;20029;-83
2024/02/27 03:29:48;;;;;;;10.20;5.97;;;;;;;;;;5014418;28;20036;-83
2024/02/27 03:32:33;;;;;;;9.20;5.05;;;;;;;;;;5011969;28;20036;-84
2024/02/27 03:35:19;;;;;;;10.23;5.45;;;;;;;;;;5014760;28;20507;-83
2024/02/27 03:38:04;;;;;;;10.43;5.60;;;;;;;;;;5014332;28;20087;-84
2024/02/27 03:40:49;;;;;;;10.57;5.75;;;;;;;;;;4995559;28;20014;-83
2024/02/27 03:43:34;;;;;;;9.77;5.35;;;;;;;;;;4995502;28;20017;-84
2024/02/27 03:46:19;;;;;;;13.40;6.45;;;;;;;;;;5001998;28;20029;-83
2024/02/27 03:49:05;;;;;;;10.05;5.50;;;;;;;;;;5010075;28;20228;-84
2024/02/27 03:51:51;;;;;;;12.55;5.90;;;;;;;;;;5010195;28;20404;-82
2024/02/27 03:54:36;;;;;;;9.65;5.90;;;;;;;;;;5009322;28;20022;-84
2024/02/27 03:57:23;;;;;;;10.15;6.15;;;;;;;;;;4996648;28;20113;-82
2024/02/27 04:00:09;;;;;;;10.73;5.50;;;;;;;;;;5003617;28;20033;-82
2024/02/27 04:02:55;;;;;;;10.40;5.40;;;;;;;;;;5000872;28;20036;-83
2024/02/27 04:05:40;;;;;;;10.95;5.85;;;;;;;;;;5013298;28;20103;-83
2024/02/27 04:08:25;;;;;;;12.60;5.97;;;;;;;;;;4991792;28;20025;-84
2024/02/27 04:11:11;;;;;;;11.43;5.35;;;;;;;;;;4992364;28;20022;-84
2024/02/27 04:13:56;;;;;;;10.65;5.72;;;;;;;;;;5021783;28;20034;-83
2024/02/27 04:16:42;;;;;;;11.48;6.40;;;;;;;;;;5007915;28;20037;-82
2024/02/27 04:19:27;;;;;;;10.48;5.82;;;;;;;;;;5006186;28;20033;-83
2024/02/27 04:22:12;;;;;;;10.32;5.90;;;;;;;;;;4994724;28;20076;-83
2024/02/27 04:24:57;;;;;;;11.35;6.22;;;;;;;;;;5011221;28;20083;-84
2024/02/27 04:27:43;;;;;;;10.93;6.68;;;;;;;;;;5001734;28;20159;-83
2024/02/27 04:30:28;;;;;;;10.48;6.15;;;;;;;;;;4992047;28;20037;-83
2024/02/27 04:33:13;;;;;;;10.98;7.15;;;;;;;;;;4998247;28;20119;-83
2024/02/27 04:35:59;;;;;;;11.45;5.57;;;;;;;;;;5005592;28;20065;-82
2024/02/27 04:38:44;;;;;;;13.40;6.75;;;;;;;;;;5010420;28;20139;-83
2024/02/27 04:41:29;;;;;;;12.50;6.90;;;;;;;;;;5001716;28;20030;-83
2024/02/27 04:44:18;;;;;;;12.93;6.93;;;;;;;;;;4989997;28;20477;-81
2024/02/27 04:47:04;;;;;;;13.75;7.78;;;;;;;;;;4995499;28;20482;-82
2024/02/27 04:49:50;;;;;;;12.82;7.13;;;;;;;;;;5010466;28;20045;-83
2024/02/27 04:52:35;;;;;;;12.00;6.50;;;;;;;;;;4995322;28;20033;-82
2024/02/27 04:55:20;;;;;;;12.02;6.78;;;;;;;;;;4990555;28;20096;-83
2024/02/27 04:58:05;;;;;;;11.50;6.13;;;;;;;;;;4992587;28;20385;-84
2024/02/27 05:00:52;;;;;;;13.02;6.65;;;;;;;;;;5001229;28;20144;-84
2024/02/27 05:03:38;;;;;;;10.95;6.68;;;;;;;;;;5000317;28;20076;-84
2024/02/27 05:06:23;;;;;;;11.65;6.82;;;;;;;;;;5004901;28;20030;-84
2024/02/27 05:09:08;;;;;;;11.80;6.97;;;;;;;;;;5005423;28;20362;-83
2024/02/27 05:11:53;;;;;;;11.88;5.95;;;;;;;;;;4997644;28;20459;-83
2024/02/27 05:14:39;;;;;;;12.38;7.68;;;;;;;;;;5003827;28;20101;-83
2024/02/27 05:17:24;;;;;;;12.07;7.57;;;;;;;;;;4992359;28;20112;-83
2024/02/27 05:20:11;;;;;;;13.30;7.22;;;;;;;;;;5008706;28;20033;-83
2024/02/27 05:22:56;;;;;;;13.63;7.55;;;;;;;;;;5001182;28;20026;-83
2024/02/27 05:25:41;;;;;;;12.60;7.50;;;;;;;;;;5006226;28;20373;-82
2024/02/27 05:28:26;;;;;;;12.77;7.95;;;;;;;;;;5013824;28;20029;-82
2024/02/27 05:31:22;;;;;;;11.65;6.50;;;;;;;;;;5007304;28;20055;-80
2024/02/27 05:34:08;;;;;;;12.27;7.65;;;;;;;;;;4991488;28;20614;-80
2024/02/27 05:36:53;;;;;;;12.25;6.38;;;;;;;;;;5005159;28;20044;-79
2024/02/27 05:39:38;;;;;;;13.25;7.35;;;;;;;;;;5018101;28;20483;-79
2024/02/27 05:42:24;;;;;;;13.70;8.27;;;;;;;;;;4997197;28;20044;-79
2024/02/27 05:45:09;;;;;;;13.43;7.75;;;;;;;;;;5002614;28;20061;-78
2024/02/27 05:47:54;;;;;;;14.35;8.23;;;;;;;;;;4996445;28;20033;-82
2024/02/27 05:50:40;;;;;;;14.77;7.75;;;;;;;;;;5003786;28;20037;-82
2024/02/27 05:53:25;;;;;;;14.18;8.43;;;;;;;;;;5001577;28;20033;-82
2024/02/27 05:56:10;;;;;;;13.10;8.45;;;;;;;;;;4993685;28;20476;-82
2024/02/27 05:58:55;;;;;;;14.10;7.75;;;;;;;;;;5006391;28;20856;-81
2024/02/27 06:01:41;;;;;;;15.15;9.98;;;;;;;;;;5019012;28;20029;-82
2024/02/27 06:04:26;;;;;;;12.75;8.50;;;;;;;;;;5012897;28;20057;-82
2024/02/27 06:07:11;;;;;;;20.20;9.75;;;;;;;;;;5014260;28;20492;-82
2024/02/27 06:09:57;;;;;;;16.77;8.93;;;;;;;;;;5019219;28;20524;-82
2024/02/27 06:12:42;;;;;;;15.20;9.32;;;;;;;;;;5006602;28;20242;-82
2024/02/27 06:15:27;;;;;;;16.38;8.65;;;;;;;;;;5007792;28;20037;-83
2024/02/27 06:18:13;;;;;;;14.00;8.50;;;;;;;;;;4999752;28;20141;-81
2024/02/27 06:24:03;;;;;;;15.57;8.98;;;;;;;;;;5013490;28;20052;-81
2024/02/27 06:26:48;;;;;;;16.20;9.73;;;;;;;;;;5031168;28;20013;-82
2024/02/27 06:29:33;;;;;;;16.08;9.88;;;;;;;;;;5034815;28;20029;-83
2024/02/27 06:32:18;;;;;;;13.98;8.10;;;;;;;;;;5029634;28;20032;-84
2024/02/27 06:35:04;;;;;;;16.50;9.48;;;;;;;;;;5037373;28;20022;-84
2024/02/27 06:37:49;;;;;;;20.88;10.38;;;;;;;;;;5013612;28;20026;-84
2024/02/27 06:40:35;;;;;;;16.10;9.25;;;;;;;;;;5010163;28;20029;-84
2024/02/27 06:43:20;;;;;;;19.25;10.60;;;;;;;;;;5006787;28;20036;-82
2024/02/27 06:46:05;;;;;;;16.05;9.48;;;;;;;;;;5008616;28;20026;-83
2024/02/27 06:48:52;;;;;;;15.48;10.02;;;;;;;;;;5005415;28;20029;-84
2024/02/27 06:51:38;;;;;;;17.80;10.43;;;;;;;;;;5014288;28;20029;-83
2024/02/27 06:54:23;;;;;;;16.45;10.65;;;;;;;;;;5014066;28;20100;-83
2024/02/27 06:57:08;;;;;;;17.83;11.48;;;;;;;;;;5011034;28;20025;-83
2024/02/27 06:59:53;;;;;;;15.05;10.13;;;;;;;;;;5009716;28;20480;-83
2024/02/27 07:02:39;;;;;;;18.50;12.38;;;;;;;;;;5008686;28;20547;-83
2024/02/27 07:05:27;;;;;;;18.45;11.98;;;;;;;;;;5023293;28;20013;-84
2024/02/27 07:08:12;;;;;;;20.27;11.73;;;;;;;;;;5023087;28;20044;-83
2024/02/27 07:10:57;;;;;;;17.58;11.32;;;;;;;;;;5010727;28;20025;-84
2024/02/27 07:13:43;;;;;;;20.48;11.05;;;;;;;;;;5013862;28;20052;-81
2024/02/27 07:16:29;;;;;;;19.95;11.80;;;;;;;;;;5014759;28;20034;-84
2024/02/27 07:19:19;;;;;;;18.85;12.55;;;;;;;;;;5002515;28;20064;-85
2024/02/27 07:22:05;;;;;;;18.05;12.10;;;;;;;;;;5015583;28;20037;-82
2024/02/27 07:24:51;;;;;;;19.48;12.35;;;;;;;;;;5003595;28;20537;-82
2024/02/27 07:27:36;;;;;;;18.00;11.65;;;;;;;;;;5008501;28;20434;-84
2024/02/27 07:30:21;;;;;;;20.75;11.90;;;;;;;;;;5007837;28;20067;-84
2024/02/27 07:33:06;;;;;;;21.27;12.35;;;;;;;;;;5003920;28;20022;-83
2024/02/27 07:35:52;;;;;;;19.30;11.57;;;;;;;;;;5010026;28;20034;-83
2024/02/27 07:38:40;;;;;;;19.63;12.18;;;;;;;;;;5010312;28;20032;-85
2024/02/27 07:41:25;;;;;;;21.33;12.93;;;;;;;;;;5003342;28;20481;-84
2024/02/27 07:44:11;;;;;;;22.20;13.07;;;;;;;;;;5008102;28;20021;-84
2024/02/27 07:46:56;;;;;;;21.63;12.57;;;;;;;;;;5002869;28;20495;-84
2024/02/27 07:49:44;;;;;;;21.30;13.25;;;;;;;;;;5007043;28;20734;-86
2024/02/27 07:52:29;;;;;;;21.58;12.50;;;;;;;;;;5008348;28;20450;-86
2024/02/27 07:55:14;;;;;;;20.30;12.98;;;;;;;;;;5007919;28;20778;-86
2024/02/27 07:57:59;;;;;;;21.10;11.98;;;;;;;;;;5013309;28;20542;-81
2024/02/27 08:00:45;;;;;;;21.48;13.07;;;;;;;;;;5010358;28;20020;-80
2024/02/27 08:03:30;;;;;;;22.58;12.63;;;;;;;;;;5021016;28;20024;-82
2024/02/27 08:06:16;;;;;;;19.90;13.32;;;;;;;;;;5028352;28;20033;-81
2024/02/27 08:09:01;;;;;;;21.70;13.18;;;;;;;;;;5013332;28;20068;-83
2024/02/27 08:11:47;;;;;;;19.88;12.52;;;;;;;;;;5010184;28;20119;-82
2024/02/27 08:14:32;;;;;;;22.40;13.73;;;;;;;;;;5011099;28;20065;-83
2024/02/27 08:17:18;;;;;;;18.40;12.35;;;;;;;;;;5009170;28;20452;-82
2024/02/27 08:20:04;;;;;;;19.73;12.25;;;;;;;;;;5012487;28;20095;-82
2024/02/27 08:22:50;;;;;;;20.80;13.07;;;;;;;;;;5012587;28;20021;-82
2024/02/27 08:25:39;;;;;;;20.90;12.68;;;;;;;;;;5000087;28;20144;-82
2024/02/27 08:28:24;;;;;;;20.63;12.05;;;;;;;;;;5006630;28;20044;-81
2024/02/27 08:31:09;;;;;;;20.42;12.65;;;;;;;;;;5010797;28;20498;-82
2024/02/27 08:33:56;;;;;;;20.60;11.98;;;;;;;;;;5008456;28;20559;-82
2024/02/27 08:36:41;;;;;;;19.13;12.68;;;;;;;;;;5016138;28;20059;-82
2024/02/27 08:39:27;;;;;;;19.52;12.88;;;;;;;;;;5020143;28;20502;-84
2024/02/27 08:42:12;;;;;;;20.33;12.25;;;;;;;;;;5003119;28;20033;-85
2024/02/27 08:44:57;;;;;;;22.45;13.15;;;;;;;;;;5012072;28;20136;-85
2024/02/27 08:47:43;;;;;;;20.67;11.88;;;;;;;;;;5007400;28;20318;-84
2024/02/27 08:50:28;;;;;;;18.83;12.50;;;;;;;;;;5017133;28;20108;-83
2024/02/27 08:53:13;;;;;;;20.48;12.85;;;;;;;;;;5021242;28;20444;-83
2024/02/27 08:55:59;;;;;;;21.63;13.10;;;;;;;;;;5009477;28;20064;-84
2024/02/27 08:58:44;;;;;;;19.90;12.65;;;;;;;;;;5014378;28;20021;-83
2024/02/27 09:01:29;;;;;;;24.73;13.05;;;;;;;;;;5015031;28;20048;-85
2024/02/27 09:04:14;;;;;;;19.55;12.38;;;;;;;;;;5009354;28;20025;-85
2024/02/27 09:07:00;;;;;;;19.48;12.60;;;;;;;;;;5016880;28;20391;-85
2024/02/27 09:09:45;;;;;;;18.45;12.55;;;;;;;;;;5009925;28;20017;-85
2024/02/27 09:12:31;;;;;;;22.50;12.60;;;;;;;;;;5015698;28;20037;-85
2024/02/27 09:15:18;;;;;;;19.17;12.27;;;;;;;;;;5008251;28;20034;-81
2024/02/27 09:18:03;;;;;;;21.60;13.60;;;;;;;;;;5007936;28;20076;-84
2024/02/27 09:20:48;;;;;;;25.13;14.45;;;;;;;;;;5013080;28;20443;-83
2024/02/27 09:23:34;;;;;;;18.58;12.43;;;;;;;;;;5004631;28;20022;-82
2024/02/27 09:26:19;;;;;;;21.05;13.65;;;;;;;;;;5006483;28;20075;-83
2024/02/27 09:29:04;;;;;;;22.90;12.88;;;;;;;;;;5007870;28;20558;-85
2024/02/27 09:31:50;;;;;;;20.50;14.32;;;;;;;;;;5009046;28;20022;-83
2024/02/27 09:34:40;;;;;;;19.45;12.88;;;;;;;;;;5004315;28;20057;-89
2024/02/27 09:37:25;;;;;;;23.40;13.07;;;;;;;;;;5001127;28;20475;-84
2024/02/27 09:40:11;;;;;;;22.25;11.93;;;;;;;;;;5014482;28;20443;-86
2024/02/27 09:43:02;;;;;;;22.25;13.43;;;;;;;;;;5005260;28;20028;-86
2024/02/27 09:45:48;;;;;;;19.35;12.68;;;;;;;;;;5007243;28;20621;-85
2024/02/27 09:48:41;;;;;;;21.52;13.48;;;;;;;;;;5014164;28;20029;-86
2024/02/27 09:51:27;;;;;;;19.60;11.98;;;;;;;;;;5005810;28;20108;-87
2024/02/27 09:54:16;;;;;;;21.85;12.50;;;;;;;;;;5014417;28;20067;-86
2024/02/27 09:57:02;;;;;;;18.52;13.15;;;;;;;;;;5014965;28;20033;-83
2024/02/27 09:59:51;;;;;;;19.50;12.90;;;;;;;;;;5017366;28;20100;-88
2024/02/27 10:02:40;;;;;;;23.08;14.40;;;;;;;;;;5018426;28;20025;-88
2024/02/27 10:05:25;;;;;;;23.55;14.02;;;;;;;;;;5000217;28;20022;-88
2024/02/27 10:08:16;;;;;;;24.17;13.55;;;;;;;;;;5014155;28;20797;-88
2024/02/27 10:11:02;;;;;;;18.60;12.77;;;;;;;;;;5009077;28;20322;-91
2024/02/27 10:13:47;;;;;;;19.90;13.02;;;;;;;;;;4998586;28;20038;-88
2024/02/27 10:16:33;;;;;;;19.13;13.23;;;;;;;;;;4988770;28;20708;-86
2024/02/27 10:19:19;;;;;;;19.80;13.73;;;;;;;;;;4987650;28;20266;-88
2024/02/27 10:22:04;;;;;;;19.60;13.25;;;;;;;;;;4987333;28;20481;-87
2024/02/27 10:25:03;;;;;;;18.35;11.75;;;;;;;;;;4991628;28;20474;-82
2024/02/27 10:27:48;;;;;;;21.60;13.23;;;;;;;;;;4995873;28;20658;-83
2024/02/27 10:30:37;;;;;;;23.70;13.80;;;;;;;;;;4983288;28;20026;-83
2024/02/27 10:33:23;;;;;;;26.17;15.82;;;;;;;;;;4994231;28;20030;-83
2024/02/27 10:36:08;;;;;;;22.77;13.88;;;;;;;;;;4983806;28;20026;-84
2024/02/27 10:39:06;;;;;;;19.58;13.65;;;;;;;;;;4985905;28;20027;-85
2024/02/27 10:41:52;;;;;;;20.67;14.63;;;;;;;;;;4996603;28;20073;-88
2024/02/27 10:44:37;;;;;;;20.92;14.43;;;;;;;;;;4995995;28;20077;-89
2024/02/27 10:47:24;;;;;;;23.65;14.82;;;;;;;;;;4993807;28;20034;-89
2024/02/27 10:50:10;;;;;;;24.50;14.48;;;;;;;;;;4993782;28;20034;-88
2024/02/27 10:52:56;;;;;;;21.85;13.57;;;;;;;;;;4998640;28;20030;-89
2024/02/27 10:55:42;;;;;;;21.92;14.93;;;;;;;;;;4989981;28;20033;-87
2024/02/27 10:58:29;;;;;;;21.60;13.90;;;;;;;;;;4990267;28;20027;-87
2024/02/27 11:01:15;;;;;;;22.30;14.13;;;;;;;;;;4999149;28;20037;-86
2024/02/27 11:04:03;;;;;;;25.10;14.25;;;;;;;;;;4987800;28;20575;-88
2024/02/27 11:06:49;;;;;;;22.42;15.13;;;;;;;;;;4984226;28;20382;-89
2024/02/27 11:09:34;;;;;;;23.25;15.70;;;;;;;;;;4991239;28;20162;-88
2024/02/27 11:12:20;;;;;;;21.83;13.75;;;;;;;;;;5001627;28;20037;-86
2024/02/27 11:15:09;;;;;;;19.58;13.25;;;;;;;;;;5004871;28;20025;-88
2024/02/27 11:18:13;;;;;;;24.42;14.35;;;;;;;;;;5003042;28;20038;-87
2024/02/27 11:21:01;;;;;;;26.50;13.88;;;;;;;;;;5021719;28;20021;-86
2024/02/27 11:23:46;;;;;;;25.55;15.00;;;;;;;;;;5014333;28;20104;-87
2024/02/27 11:26:32;;;;;;;21.80;14.75;;;;;;;;;;5017112;28;20036;-84
2024/02/27 11:29:18;;;;;;;19.02;13.80;;;;;;;;;;5006967;28;20034;-85
2024/02/27 11:32:04;;;;;;;23.95;15.18;;;;;;;;;;5010492;28;20120;-83
2024/02/27 11:34:49;;;;;;;25.15;14.85;;;;;;;;;;5019713;28;20063;-83
2024/02/27 11:37:34;;;;;;;23.23;13.93;;;;;;;;;;4998005;28;20020;-84
2024/02/27 11:40:39;;;;;;;20.33;13.68;;;;;;;;;;5005374;28;20068;-83
2024/02/27 11:43:24;;;;;;;20.38;13.73;;;;;;;;;;5013563;28;20033;-82
2024/02/27 11:46:28;;;;;;;22.92;16.48;;;;;;;;;;5002336;28;20029;-83
2024/02/27 11:49:34;;;;;;;19.67;14.70;;;;;;;;;;5016704;28;20025;-83
2024/02/27 11:52:19;;;;;;;22.98;14.27;;;;;;;;;;5012367;28;20040;-82
2024/02/27 11:55:06;;;;;;;23.92;14.65;;;;;;;;;;5016114;28;20032;-85
2024/02/27 11:57:53;;;;;;;25.55;16.55;;;;;;;;;;5019410;28;20040;-85
2024/02/27 12:00:38;;;;;;;24.77;15.50;;;;;;;;;;5022102;28;20025;-83
2024/02/27 12:03:23;;;;;;;27.15;16.35;;;;;;;;;;5005383;28;20524;-81
2024/02/27 12:06:09;;;;;;;24.05;16.17;;;;;;;;;;5014634;28;20040;-87
2024/02/27 12:08:54;;;;;;;24.95;16.52;;;;;;;;;;5010089;28;20083;-89
2024/02/27 12:11:44;;;;;;;28.25;17.95;;;;;;;;;;5002954;28;20172;-89
2024/02/27 12:14:30;;;;;;;35.63;17.73;;;;;;;;;;5007597;28;20025;-89
2024/02/27 12:17:16;;;;;;;26.38;16.48;;;;;;;;;;5014352;28;20249;-88
2024/02/27 12:20:11;;;;;;;26.33;16.40;;;;;;;;;;5011265;28;20048;-89
2024/02/27 12:22:57;;;;;;;24.20;16.95;;;;;;;;;;5004496;28;20108;-89
2024/02/27 12:25:44;;;;;;;26.65;16.67;;;;;;;;;;5013086;28;20047;-89
2024/02/27 12:28:30;;;;;;;23.42;15.82;;;;;;;;;;4996372;28;20540;-90
2024/02/27 12:31:18;;;;;;;24.20;16.50;;;;;;;;;;5005944;28;20388;-91
2024/02/27 12:34:07;;;;;;;25.13;15.55;;;;;;;;;;5008146;28;20106;-89
2024/02/27 12:36:53;;;;;;;23.05;17.02;;;;;;;;;;5004152;28;20038;-89
2024/02/27 12:39:40;;;;;;;27.30;18.20;;;;;;;;;;4992648;28;20138;-90
2024/02/27 12:42:25;;;;;;;24.25;16.73;;;;;;;;;;5012305;28;20029;-87
2024/02/27 12:45:12;;;;;;;25.23;18.35;;;;;;;;;;5011489;28;20054;-91
2024/02/27 12:47:59;;;;;;;27.00;17.30;;;;;;;;;;5008135;28;20029;-90
2024/02/27 12:50:46;;;;;;;28.58;18.17;;;;;;;;;;4998904;28;20022;-91
2024/02/27 12:53:32;;;;;;;24.45;16.98;;;;;;;;;;5024476;28;20616;-90
2024/02/27 12:56:19;;;;;;;24.10;17.25;;;;;;;;;;4995428;28;20025;-90
2024/02/27 12:59:07;;;;;;;28.33;18.75;;;;;;;;;;5003955;28;20416;-88
2024/02/27 13:01:57;;;;;;;24.25;16.60;;;;;;;;;;5014821;28;20028;-90
2024/02/27 13:04:52;;;;;;;25.70;17.38;;;;;;;;;;5008834;28;20489;-91
2024/02/27 13:07:59;;;;;;;31.42;18.20;;;;;;;;;;5010968;28;20476;-91
2024/02/27 13:17:26;;;;;;;29.17;17.98;;;;;;;;;;4959465;28;20037;-88
2024/02/27 13:20:12;;;;;;;26.45;17.83;;;;;;;;;;4969999;28;20039;-89
2024/02/27 13:23:06;;;;;;;28.52;17.73;;;;;;;;;;4959999;28;20031;-91
2024/02/27 13:25:58;;;;;;;27.38;18.63;;;;;;;;;;4967988;28;20037;-89
2024/02/27 13:36:02;;;;;;;28.95;18.23;;;;;;;;;;4876769;29;20049;-90
2024/02/27 13:50:00;;;;;;;24.35;17.13;;;;;;;;;;4843169;29;20104;-90
2024/02/27 13:59:56;;;;;;;25.98;16.05;;;;;;;;;;4908355;28;20041;-88
2024/02/27 14:02:41;;;;;;;26.95;18.13;;;;;;;;;;4970228;28;20030;-87
2024/02/27 14:05:26;;;;;;;33.97;20.02;;;;;;;;;;4976735;28;20112;-82
2024/02/27 14:08:13;;;;;;;40.72;23.45;;;;;;;;;;4970647;28;20022;-88
2024/02/27 14:10:59;;;;;;;39.70;23.02;;;;;;;;;;4976865;28;20018;-87
2024/02/27 14:13:45;;;;;;;38.30;21.40;;;;;;;;;;4970311;28;20085;-85
2024/02/27 14:16:31;;;;;;;28.98;18.23;;;;;;;;;;4977386;28;20029;-88
2024/02/27 14:19:16;;;;;;;34.38;18.45;;;;;;;;;;4975683;28;20378;-87
2024/02/27 14:22:02;;;;;;;24.83;16.17;;;;;;;;;;4969714;28;20519;-83
2024/02/27 14:24:48;;;;;;;30.95;18.77;;;;;;;;;;4976162;28;20026;-83
2024/02/27 14:27:34;;;;;;;24.45;17.63;;;;;;;;;;4972960;28;20039;-84
2024/02/27 14:30:20;;;;;;;30.70;18.67;;;;;;;;;;4976205;28;20038;-83
2024/02/27 14:33:05;;;;;;;32.30;18.30;;;;;;;;;;4987362;28;20268;-83
2024/02/27 14:35:51;;;;;;;24.83;16.85;;;;;;;;;;4989666;28;20163;-83
2024/02/27 14:38:37;;;;;;;26.25;16.52;;;;;;;;;;4998996;28;20042;-84
2024/02/27 14:41:41;;;;;;;25.70;16.77;;;;;;;;;;5016672;28;20029;-84
2024/02/27 14:44:25;;;;;;;28.77;16.27;;;;;;;;;;5014480;28;20073;-84
2024/02/27 14:47:11;;;;;;;26.60;15.93;;;;;;;;;;5009035;28;20390;-84
2024/02/27 14:49:56;;;;;;;23.67;15.88;;;;;;;;;;4997374;28;20460;-83
2024/02/27 14:52:42;;;;;;;28.92;16.38;;;;;;;;;;4986218;28;20093;-84
2024/02/27 14:55:28;;;;;;;26.23;17.20;;;;;;;;;;4987617;28;20037;-85
2024/02/27 14:58:15;;;;;;;25.05;15.95;;;;;;;;;;4988197;28;20056;-86
2024/02/27 15:01:01;;;;;;;22.33;15.90;;;;;;;;;;4986163;28;20027;-83
2024/02/27 15:03:46;;;;;;;22.35;14.82;;;;;;;;;;4986448;28;20018;-83
2024/02/27 15:06:32;;;;;;;25.33;15.20;;;;;;;;;;4988389;28;20113;-81
2024/02/27 15:09:18;;;;;;;22.52;15.05;;;;;;;;;;4981322;28;20416;-83
2024/02/27 15:12:08;;;;;;;25.08;14.98;;;;;;;;;;4987665;28;20038;-83
2024/02/27 15:15:12;;;;;;;22.53;14.00;;;;;;;;;;4969066;28;20553;-90
2024/02/27 15:17:58;;;;;;;23.58;14.82;;;;;;;;;;4980188;28;20038;-91
2024/02/27 15:20:43;;;;;;;23.08;14.93;;;;;;;;;;4971867;28;20117;-89
2024/02/27 15:23:30;;;;;;;24.05;16.52;;;;;;;;;;4972088;28;20071;-90
2024/02/27 15:26:15;;;;;;;22.45;13.43;;;;;;;;;;4969821;28;20113;-89
2024/02/27 15:29:30;;;;;;;24.73;15.30;;;;;;;;;;4978764;28;20117;-88
2024/02/27 15:32:15;;;;;;;20.83;13.98;;;;;;;;;;4959929;28;20055;-88
2024/02/27 15:35:01;;;;;;;23.85;13.65;;;;;;;;;;4971134;28;20027;-89
2024/02/27 15:37:47;;;;;;;24.38;14.98;;;;;;;;;;4961541;28;20528;-89
2024/02/27 15:40:32;;;;;;;22.95;13.68;;;;;;;;;;4968028;28;20042;-89
2024/02/27 15:43:18;;;;;;;23.20;14.60;;;;;;;;;;4970310;28;20026;-88
2024/02/27 15:46:07;;;;;;;24.63;14.75;;;;;;;;;;4969289;28;20054;-89
2024/02/27 15:48:53;;;;;;;21.42;13.80;;;;;;;;;;4985917;28;20743;-88
2024/02/27 15:51:43;;;;;;;22.13;14.85;;;;;;;;;;4970691;28;20109;-88
2024/02/27 15:54:28;;;;;;;26.25;14.73;;;;;;;;;;4969209;28;20450;-89
2024/02/27 15:57:13;;;;;;;23.70;14.40;;;;;;;;;;4971830;28;20022;-89
2024/02/27 16:00:00;;;;;;;24.20;14.35;;;;;;;;;;4979335;28;20064;-89
2024/02/27 16:02:46;;;;;;;24.75;14.32;;;;;;;;;;4970577;28;20030;-88
2024/02/27 16:05:44;;;;;;;22.63;13.98;;;;;;;;;;4990233;28;20354;-89
2024/02/27 16:08:31;;;;;;;20.40;14.30;;;;;;;;;;4963056;28;20029;-88
2024/02/27 16:11:16;;;;;;;22.80;14.45;;;;;;;;;;4969761;28;20034;-87
2024/02/27 16:14:01;;;;;;;21.70;13.40;;;;;;;;;;4939117;28;20055;-89
2024/02/27 16:16:47;;;;;;;22.63;13.80;;;;;;;;;;4960916;28;20027;-89
2024/02/27 16:19:34;;;;;;;20.05;13.48;;;;;;;;;;4962000;28;20033;-87
2024/02/27 16:22:20;;;;;;;19.75;13.45;;;;;;;;;;4967188;28;20018;-88
2024/02/27 16:25:05;;;;;;;24.13;15.45;;;;;;;;;;4979733;28;20339;-88
2024/02/27 16:27:52;;;;;;;22.80;14.13;;;;;;;;;;4980900;28;20038;-88
2024/02/27 16:30:37;;;;;;;20.38;13.27;;;;;;;;;;4966942;28;20062;-87
2024/02/27 16:33:22;;;;;;;19.63;12.85;;;;;;;;;;4964659;28;20023;-87
2024/02/27 16:36:07;;;;;;;23.23;14.35;;;;;;;;;;4963528;28;20042;-87
2024/02/27 16:38:53;;;;;;;19.08;12.75;;;;;;;;;;4963026;28;20042;-87
2024/02/27 16:41:38;;;;;;;21.77;14.20;;;;;;;;;;4962691;28;20054;-85
2024/02/27 16:44:23;;;;;;;25.17;15.27;;;;;;;;;;4965642;28;20031;-88
2024/02/27 16:47:09;;;;;;;21.58;14.25;;;;;;;;;;4950794;28;20054;-86
2024/02/27 16:49:54;;;;;;;20.13;12.60;;;;;;;;;;4965616;28;20080;-87
2024/02/27 16:52:40;;;;;;;18.65;12.57;;;;;;;;;;4968764;28;20030;-87